createdAt,value
2023-03-15T14:25:56.696Z,2.70
2023-03-15T14:26:57.661Z,2.60
2023-03-15T14:27:57.630Z,2.80
2023-03-15T14:28:57.623Z,2.50
2023-03-15T14:29:57.619Z,3.00
2023-03-15T14:30:57.626Z,2.90
2023-03-15T14:31:57.596Z,2.70
2023-03-15T14:32:57.633Z,2.70
2023-03-15T14:33:57.709Z,2.40
2023-03-15T14:34:57.573Z,2.70
2023-03-15T14:35:57.566Z,2.80
2023-03-15T14:36:57.741Z,2.30
2023-03-15T14:37:57.513Z,2.50
2023-03-15T14:38:57.512Z,2.50
2023-03-15T14:39:57.562Z,2.40
2023-03-15T14:40:57.469Z,2.20
2023-03-15T14:41:57.453Z,2.50
2023-03-15T14:42:57.477Z,2.00
2023-03-15T14:43:57.548Z,2.10
2023-03-15T14:44:57.436Z,2.20
2023-03-15T14:45:57.456Z,2.20
2023-03-15T14:46:57.463Z,2.40
2023-03-15T14:47:57.971Z,2.20
2023-03-15T14:48:57.420Z,1.90
2023-03-15T14:49:57.358Z,2.50
2023-03-15T14:50:57.373Z,2.70
2023-03-15T14:51:57.358Z,2.30
2023-03-15T14:52:57.348Z,2.00
2023-03-15T14:53:57.295Z,2.10
2023-03-15T14:54:57.298Z,2.00
2023-03-15T14:55:57.272Z,2.30
2023-03-15T14:56:57.242Z,2.30
2023-03-15T14:57:57.246Z,2.40
2023-03-15T14:58:57.249Z,2.30
2023-03-15T14:59:57.249Z,2.30
2023-03-15T15:00:57.221Z,2.40
2023-03-15T15:01:57.225Z,2.60
2023-03-15T15:02:57.218Z,2.30
2023-03-15T15:03:57.177Z,2.30
2023-03-15T15:04:57.154Z,2.10
2023-03-15T15:05:57.171Z,3.00
2023-03-15T15:06:57.121Z,2.30
2023-03-15T15:07:57.154Z,2.30
2023-03-15T15:08:57.152Z,2.20
2023-03-15T15:09:57.134Z,2.40
2023-03-15T15:10:57.062Z,2.70
2023-03-15T15:11:57.082Z,2.50
2023-03-15T15:13:05.908Z,2.50
2023-03-15T15:13:57.030Z,2.30
2023-03-15T15:14:57.084Z,2.70
2023-03-15T15:15:57.312Z,2.40
2023-03-15T15:16:57.169Z,2.40
2023-03-15T15:17:57.002Z,2.60
2023-03-15T15:18:56.970Z,2.50
2023-03-15T15:19:57.018Z,2.70
2023-03-15T15:20:56.967Z,2.40
2023-03-15T15:21:56.950Z,2.50
2023-03-15T15:22:56.918Z,2.40
2023-03-15T15:23:59.344Z,2.50
2023-03-15T15:24:56.987Z,2.60
2023-03-15T15:25:56.941Z,2.90
2023-03-15T15:26:56.933Z,2.30
2023-03-15T15:27:56.879Z,2.30
2023-03-15T15:28:56.838Z,2.40
2023-03-15T15:29:57.086Z,2.70
2023-03-15T15:31:03.475Z,2.40
2023-03-15T15:31:56.963Z,2.40
2023-03-15T15:32:57.119Z,2.30
2023-03-15T15:33:57.304Z,2.40
2023-03-15T15:34:57.032Z,2.60
2023-03-15T15:35:56.806Z,2.70
2023-03-15T15:36:56.841Z,2.30
2023-03-15T15:37:56.722Z,2.30
2023-03-15T15:38:56.757Z,2.10
2023-03-15T15:39:56.758Z,2.30
2023-03-15T15:40:56.724Z,2.30
2023-03-15T15:41:56.702Z,2.50
2023-03-15T15:42:56.664Z,2.80
2023-03-15T15:43:56.685Z,2.00
2023-03-15T15:44:56.678Z,2.00
2023-03-15T15:45:56.676Z,1.90
2023-03-15T15:46:56.626Z,2.10
2023-03-15T15:47:56.584Z,2.10
2023-03-15T15:48:56.683Z,2.20
2023-03-15T15:49:56.550Z,2.30
2023-03-15T15:50:56.542Z,2.10
2023-03-15T15:51:56.569Z,2.40
2023-03-15T15:52:56.535Z,2.60
2023-03-15T15:53:56.676Z,2.10
2023-03-15T15:54:56.512Z,1.80
2023-03-15T15:55:56.515Z,1.80
2023-03-15T15:56:56.506Z,1.80
2023-03-15T15:57:56.519Z,1.70
2023-03-15T15:58:56.495Z,2.20
2023-03-15T15:59:56.446Z,2.20
2023-03-15T16:00:56.435Z,2.20
2023-03-15T16:02:01.056Z,2.10
2023-03-15T16:02:56.532Z,2.00
2023-03-15T16:03:56.400Z,2.40
2023-03-15T16:04:56.359Z,2.80
2023-03-15T16:05:56.421Z,2.20
2023-03-15T16:06:56.482Z,2.30
2023-03-15T16:07:56.356Z,2.10
2023-03-15T16:08:56.378Z,2.30
2023-03-15T16:09:56.341Z,2.20
2023-03-15T16:10:56.320Z,2.30
2023-03-15T16:11:56.346Z,2.30
2023-03-15T16:12:56.268Z,2.20
2023-03-15T16:13:56.350Z,2.20
2023-03-15T16:14:56.257Z,2.20
2023-03-15T16:15:56.244Z,2.40
2023-03-15T16:16:56.233Z,2.10
2023-03-15T16:17:56.193Z,2.20
2023-03-15T16:18:56.239Z,2.00
2023-03-15T16:19:56.229Z,1.80
2023-03-15T16:20:56.247Z,2.10
2023-03-15T16:21:56.202Z,2.00
2023-03-15T16:22:56.140Z,2.10
2023-03-15T16:23:56.211Z,2.40
2023-03-15T16:24:56.133Z,2.00
2023-03-15T16:25:56.111Z,2.30
2023-03-15T16:26:56.098Z,2.40
2023-03-15T16:27:56.067Z,2.70
2023-03-15T16:28:56.078Z,2.30
2023-03-15T16:29:56.136Z,2.30
2023-03-15T16:30:56.031Z,2.70
2023-03-15T16:32:06.588Z,2.20
2023-03-15T16:32:56.070Z,2.10
2023-03-15T16:33:56.069Z,2.30
2023-03-15T16:34:56.001Z,2.40
2023-03-15T16:35:56.004Z,2.20
2023-03-15T16:36:55.996Z,2.60
2023-03-15T16:37:55.976Z,2.30
2023-03-15T16:38:55.916Z,2.50
2023-03-15T16:39:55.982Z,2.20
2023-03-15T16:40:55.935Z,2.30
2023-03-15T16:41:55.913Z,2.70
2023-03-15T16:42:55.861Z,2.40
2023-03-15T16:45:12.434Z,2.20
2023-03-15T16:46:13.481Z,2.30
2023-03-15T16:47:13.410Z,2.70
2023-03-15T16:48:13.382Z,2.30
2023-03-15T16:49:15.458Z,2.30
2023-03-15T16:50:13.370Z,2.30
2023-03-15T16:51:13.351Z,2.40
2023-03-15T16:52:13.344Z,2.50
2023-03-15T16:53:13.347Z,2.40
2023-03-15T16:54:24.284Z,2.20
2023-03-15T16:55:13.371Z,2.30
2023-03-15T16:56:13.283Z,2.70
2023-03-15T16:57:13.249Z,2.50
2023-03-15T16:58:13.238Z,2.30
2023-03-15T16:59:13.222Z,2.70
2023-03-15T17:00:13.274Z,2.30
2023-03-15T17:01:13.228Z,2.40
2023-03-15T17:02:13.225Z,2.40
2023-03-15T17:03:13.243Z,2.20
2023-03-15T17:04:13.220Z,2.30
2023-03-15T17:05:13.192Z,2.40
2023-03-15T17:06:13.184Z,2.20
2023-03-15T17:07:13.137Z,2.40
2023-03-15T17:08:13.108Z,2.20
2023-03-15T17:09:13.104Z,2.40
2023-03-15T17:10:13.130Z,2.70
2023-03-15T17:11:13.065Z,2.40
2023-03-15T17:12:13.080Z,2.50
2023-03-15T17:13:13.083Z,2.50
2023-03-15T17:14:13.106Z,2.30
2023-03-15T17:15:13.053Z,2.40
2023-03-15T17:16:13.088Z,2.50
2023-03-15T17:17:13.018Z,2.40
2023-03-15T17:18:13.018Z,2.40
2023-03-15T17:19:12.981Z,2.40
2023-03-15T17:20:12.964Z,2.70
2023-03-15T17:21:12.984Z,2.70
2023-03-15T17:22:12.938Z,2.90
2023-03-15T17:23:12.927Z,2.40
2023-03-15T17:24:12.914Z,3.10
2023-03-15T17:25:12.897Z,2.20
2023-03-15T17:26:12.936Z,2.70
2023-03-15T17:27:12.891Z,2.30
2023-03-15T17:28:12.896Z,2.60
2023-03-15T17:29:12.860Z,2.40
2023-03-15T17:30:12.861Z,2.30
2023-03-15T17:31:24.682Z,2.60
2023-03-15T17:32:12.832Z,2.70
2023-03-15T17:33:12.829Z,2.40
2023-03-15T17:34:12.799Z,2.70
2023-03-15T17:35:12.850Z,2.30
2023-03-15T17:36:12.856Z,2.50
2023-03-15T17:37:12.728Z,2.80
2023-03-15T17:38:12.718Z,2.90
2023-03-15T17:39:12.707Z,2.50
2023-03-15T17:40:12.729Z,2.30
2023-03-15T17:41:12.750Z,2.80
2023-03-15T17:42:12.722Z,2.50
2023-03-15T17:43:12.687Z,2.70
2023-03-15T17:44:12.637Z,2.60
2023-03-15T17:45:12.644Z,2.40
2023-03-15T17:46:12.626Z,2.80
2023-03-15T17:47:12.763Z,2.70
2023-03-15T17:48:12.616Z,3.10
2023-03-15T17:49:12.569Z,2.60
2023-03-15T17:50:12.564Z,2.70
2023-03-15T17:51:12.569Z,2.40
2023-03-15T17:52:12.533Z,2.70
2023-03-15T17:53:12.535Z,2.70
2023-03-15T17:54:12.531Z,2.80
2023-03-15T17:55:12.503Z,3.00
2023-03-15T17:56:12.496Z,3.20
2023-03-15T17:57:12.478Z,2.90
2023-03-15T17:58:12.481Z,2.70
2023-03-15T17:59:12.454Z,2.70
2023-03-15T18:00:12.432Z,2.90
2023-03-15T18:01:12.488Z,2.90
2023-03-15T18:02:12.420Z,3.00
2023-03-15T18:03:12.393Z,3.00
2023-03-15T18:04:12.433Z,2.60
2023-03-15T18:05:12.405Z,2.90
2023-03-15T18:06:12.386Z,2.80
2023-03-15T18:07:12.406Z,2.90
2023-03-15T18:08:12.381Z,3.00
2023-03-15T18:09:12.544Z,2.70
2023-03-15T18:10:12.349Z,2.90
2023-03-15T18:11:12.348Z,2.90
2023-03-15T18:12:14.928Z,2.90
2023-03-15T18:13:12.326Z,2.60
2023-03-15T18:14:12.326Z,3.00
2023-03-15T18:15:12.291Z,3.70
2023-03-15T18:16:12.364Z,3.20
2023-03-15T18:17:12.278Z,3.00
2023-03-15T18:18:12.253Z,3.10
2023-03-15T18:19:12.275Z,3.00
2023-03-15T18:20:12.226Z,2.90
2023-03-15T18:21:12.219Z,3.10
2023-03-15T18:22:12.210Z,2.90
2023-03-15T18:23:12.180Z,3.00
2023-03-15T18:24:12.201Z,3.10
2023-03-15T18:25:12.198Z,3.10
2023-03-15T18:26:12.151Z,3.00
2023-03-15T18:27:12.142Z,3.00
2023-03-15T18:28:12.126Z,2.90
2023-03-15T18:29:12.148Z,3.00
2023-03-15T18:30:12.130Z,3.00
2023-03-15T18:31:12.108Z,2.80
2023-03-15T18:32:12.328Z,2.70
2023-03-15T18:33:12.176Z,2.80
2023-03-15T18:34:12.108Z,2.80
2023-03-15T18:35:12.065Z,3.30
2023-03-15T18:36:12.150Z,3.30
2023-03-15T18:37:12.071Z,3.20
2023-03-15T18:38:12.027Z,3.10
2023-03-15T18:39:12.039Z,2.70
2023-03-15T18:40:11.959Z,3.00
2023-03-15T18:41:11.983Z,3.10
2023-03-15T18:42:11.934Z,3.10
2023-03-15T18:43:11.930Z,3.40
2023-03-15T18:44:11.926Z,2.80
2023-03-15T18:45:11.911Z,2.80
2023-03-15T18:46:11.983Z,3.00
2023-03-15T18:47:11.877Z,3.00
2023-03-15T18:48:11.875Z,2.90
2023-03-15T18:49:11.849Z,2.90
2023-03-15T18:50:11.910Z,2.70
2023-03-15T18:51:11.884Z,2.90
2023-03-15T18:52:11.804Z,3.10
2023-03-15T18:53:11.804Z,2.80
2023-03-15T18:54:11.795Z,3.20
2023-03-15T18:55:11.791Z,3.30
2023-03-15T18:56:11.763Z,3.60
2023-03-15T18:57:11.740Z,3.80
2023-03-15T18:58:11.765Z,3.70
2023-03-15T18:59:11.779Z,4.20
2023-03-15T19:00:11.709Z,4.20
2023-03-15T19:01:11.710Z,3.80
2023-03-15T19:02:11.758Z,3.60
2023-03-15T19:03:11.669Z,3.30
2023-03-15T19:04:11.672Z,3.30
2023-03-15T19:05:11.660Z,3.50
2023-03-15T19:06:11.748Z,3.60
2023-03-15T19:07:11.641Z,3.20
2023-03-15T19:08:11.612Z,3.10
2023-03-15T19:09:11.640Z,3.40
2023-03-15T19:10:11.587Z,4.00
2023-03-15T19:11:11.598Z,4.40
2023-03-15T19:12:11.573Z,4.60
2023-03-15T19:13:11.544Z,5.20
2023-03-15T19:14:11.554Z,5.10
2023-03-15T19:15:11.546Z,5.20
2023-03-15T19:16:11.501Z,4.80
2023-03-15T19:17:11.606Z,3.50
2023-03-15T19:18:11.513Z,4.60
2023-03-15T19:19:11.475Z,4.50
2023-03-15T19:20:11.513Z,4.30
2023-03-15T19:21:11.445Z,5.40
2023-03-15T19:22:11.434Z,5.40
2023-03-15T19:23:11.413Z,6.40
2023-03-15T19:24:11.395Z,6.10
2023-03-15T19:25:11.453Z,5.60
2023-03-15T19:26:11.384Z,6.20
2023-03-15T19:27:11.383Z,6.00
2023-03-15T19:28:11.351Z,7.10
2023-03-15T19:29:11.336Z,7.50
2023-03-15T19:30:11.357Z,8.20
2023-03-15T19:31:11.415Z,6.70
2023-03-15T19:32:11.303Z,5.70
2023-03-15T19:33:11.453Z,5.80
2023-03-15T19:34:11.272Z,5.70
2023-03-15T19:35:11.278Z,5.20
2023-03-15T19:36:11.310Z,4.60
2023-03-15T19:37:11.252Z,4.70
2023-03-15T19:38:11.746Z,4.50
2023-03-15T19:39:11.199Z,4.90
2023-03-15T19:40:11.222Z,3.80
2023-03-15T19:41:12.743Z,3.70
2023-03-15T19:42:11.182Z,3.70
2023-03-15T19:43:11.167Z,4.10
2023-03-15T19:44:11.138Z,3.60
2023-03-15T19:45:11.127Z,3.20
2023-03-15T19:46:11.186Z,3.30
2023-03-15T19:47:11.136Z,3.10
2023-03-15T19:48:11.084Z,3.40
2023-03-15T19:49:11.122Z,2.90
2023-03-15T19:50:11.063Z,3.10
2023-03-15T19:51:11.049Z,2.90
2023-03-15T19:52:11.072Z,3.00
2023-03-15T19:53:11.028Z,2.70
2023-03-15T19:54:11.007Z,2.90
2023-03-15T19:55:11.024Z,2.90
2023-03-15T19:56:10.981Z,3.20
2023-03-15T19:57:10.968Z,2.90
2023-03-15T19:58:10.998Z,3.00
2023-03-15T19:59:11.037Z,3.10
2023-03-15T20:00:10.943Z,3.30
2023-03-15T20:01:10.965Z,3.40
2023-03-15T20:02:10.932Z,3.60
2023-03-15T20:03:10.912Z,3.60
2023-03-15T20:04:11.083Z,3.50
2023-03-15T20:05:11.029Z,3.40
2023-03-15T20:06:10.876Z,3.70
2023-03-15T20:07:10.963Z,3.50
2023-03-15T20:08:10.848Z,3.40
2023-03-15T20:09:10.821Z,3.60
2023-03-15T20:10:10.965Z,3.70
2023-03-15T20:11:10.791Z,3.60
2023-03-15T20:12:10.786Z,3.40
2023-03-15T20:13:10.793Z,3.50
2023-03-15T20:14:10.766Z,3.20
2023-03-15T20:15:10.770Z,3.20
2023-03-15T20:16:10.830Z,3.20
2023-03-15T20:17:10.721Z,2.70
2023-03-15T20:18:10.720Z,2.90
2023-03-15T20:19:10.691Z,3.00
2023-03-15T20:20:10.686Z,2.90
2023-03-15T20:21:10.670Z,3.10
2023-03-15T20:22:10.661Z,3.50
2023-03-15T20:23:10.675Z,2.90
2023-03-15T20:24:10.632Z,2.90
2023-03-15T20:25:10.615Z,2.70
2023-03-15T20:26:10.639Z,3.00
2023-03-15T20:27:10.595Z,3.20
2023-03-15T20:28:10.585Z,3.20
2023-03-15T20:29:10.578Z,3.10
2023-03-15T20:30:10.575Z,3.40
2023-03-15T20:31:10.589Z,3.20
2023-03-15T20:32:10.550Z,3.00
2023-03-15T20:33:10.940Z,3.70
2023-03-15T20:34:10.574Z,3.50
2023-03-15T20:35:10.506Z,3.40
2023-03-15T20:36:10.522Z,3.70
2023-03-15T20:37:10.466Z,4.00
2023-03-15T20:38:10.486Z,3.20
2023-03-15T20:39:10.439Z,3.40
2023-03-15T20:40:10.429Z,3.30
2023-03-15T20:41:10.419Z,3.40
2023-03-15T20:42:10.406Z,3.40
2023-03-15T20:43:11.417Z,3.30
2023-03-15T20:44:10.383Z,3.70
2023-03-15T20:45:10.380Z,2.90
2023-03-15T20:46:10.347Z,3.70
2023-03-15T20:47:10.369Z,3.40
2023-03-15T20:48:10.348Z,3.30
2023-03-15T20:49:10.323Z,3.50
2023-03-15T20:50:10.326Z,3.20
2023-03-15T20:51:10.295Z,3.30
2023-03-15T20:52:10.312Z,3.30
2023-03-15T20:53:10.325Z,3.60
2023-03-15T20:54:10.235Z,3.30
2023-03-15T20:55:10.257Z,4.00
2023-03-15T20:56:10.232Z,3.70
2023-03-15T20:57:10.239Z,3.80
2023-03-15T20:58:10.201Z,3.30
2023-03-15T20:59:10.215Z,3.40
2023-03-15T21:00:10.189Z,3.60
2023-03-15T21:01:10.199Z,3.50
2023-03-15T21:02:10.145Z,3.40
2023-03-15T21:03:10.177Z,3.10
2023-03-15T21:04:10.117Z,3.40
2023-03-15T21:05:10.103Z,3.60
2023-03-15T21:06:10.109Z,5.10
2023-03-15T21:07:10.072Z,5.10
2023-03-15T21:08:10.093Z,5.20
2023-03-15T21:09:10.053Z,5.40
2023-03-15T21:10:10.044Z,5.50
2023-03-15T21:11:10.095Z,6.10
2023-03-15T21:12:10.008Z,5.00
2023-03-15T21:13:10.368Z,5.50
2023-03-15T21:14:10.004Z,6.40
2023-03-15T21:15:09.999Z,6.00
2023-03-15T21:16:09.982Z,6.80
2023-03-15T21:17:09.947Z,6.20
2023-03-15T21:18:09.927Z,6.90
2023-03-15T21:19:09.920Z,7.00
2023-03-15T21:20:09.929Z,7.50
2023-03-15T21:21:09.921Z,7.50
2023-03-15T21:22:09.872Z,7.90
2023-03-15T21:23:09.878Z,8.50
2023-03-15T21:24:09.864Z,7.60
2023-03-15T21:25:09.837Z,7.60
2023-03-15T21:26:09.857Z,7.70
2023-03-15T21:27:09.818Z,7.20
2023-03-15T21:28:09.811Z,6.10
2023-03-15T21:29:09.802Z,5.30
2023-03-15T21:30:09.774Z,4.60
2023-03-15T21:31:09.809Z,4.10
2023-03-15T21:32:09.739Z,4.20
2023-03-15T21:33:09.809Z,4.50
2023-03-15T21:34:09.749Z,4.10
2023-03-15T21:35:09.726Z,4.20
2023-03-15T21:36:09.724Z,4.00
2023-03-15T21:37:09.673Z,4.20
2023-03-15T21:38:09.696Z,4.70
2023-03-15T21:39:09.694Z,5.00
2023-03-15T21:40:09.629Z,4.80
2023-03-15T21:41:09.653Z,5.10
2023-03-15T21:42:09.655Z,5.70
2023-03-15T21:43:09.624Z,5.40
2023-03-15T21:44:09.588Z,5.20
2023-03-15T21:45:09.670Z,5.00
2023-03-15T21:46:09.704Z,4.80
2023-03-15T21:47:09.565Z,4.40
2023-03-15T21:48:09.560Z,4.70
2023-03-15T21:49:09.542Z,4.20
2023-03-15T21:50:09.525Z,5.40
2023-03-15T21:51:09.520Z,4.60
2023-03-15T21:52:09.484Z,4.40
2023-03-15T21:53:09.498Z,4.50
2023-03-15T21:54:09.453Z,5.00
2023-03-15T21:55:09.476Z,4.80
2023-03-15T21:56:09.435Z,4.40
2023-03-15T21:57:09.422Z,4.00
2023-03-15T21:58:09.454Z,4.60
2023-03-15T21:59:09.415Z,4.50
2023-03-15T22:00:09.390Z,5.40
2023-03-15T22:01:09.416Z,5.50
2023-03-15T22:02:09.377Z,5.00
2023-03-15T22:03:09.377Z,3.90
2023-03-15T22:04:09.372Z,3.60
2023-03-15T22:05:09.341Z,3.60
2023-03-15T22:06:09.323Z,3.30
2023-03-15T22:07:09.292Z,3.00
2023-03-15T22:08:09.273Z,3.30
2023-03-15T22:09:09.279Z,3.50
2023-03-15T22:10:09.280Z,3.30
2023-03-15T22:11:09.270Z,3.10
2023-03-15T22:12:09.229Z,3.40
2023-03-15T22:13:09.218Z,3.20
2023-03-15T22:14:09.206Z,3.10
2023-03-15T22:15:09.195Z,3.00
2023-03-15T22:16:09.214Z,3.10
2023-03-15T22:17:09.253Z,3.20
2023-03-15T22:18:09.166Z,2.90
2023-03-15T22:19:09.140Z,3.30
2023-03-15T22:20:09.125Z,3.40
2023-03-15T22:21:09.118Z,3.20
2023-03-15T22:22:09.099Z,3.10
2023-03-15T22:23:09.123Z,3.00
2023-03-15T22:24:09.074Z,3.30
2023-03-15T22:25:09.051Z,3.80
2023-03-15T22:26:09.067Z,3.00
2023-03-15T22:27:09.029Z,3.30
2023-03-15T22:28:09.042Z,3.20
2023-03-15T22:29:09.037Z,3.20
2023-03-15T22:30:09.024Z,3.30
2023-03-15T22:31:09.021Z,3.10
2023-03-15T22:32:09.000Z,3.30
2023-03-15T22:33:09.045Z,3.40
2023-03-15T22:34:08.983Z,3.40
2023-03-15T22:35:08.938Z,3.20
2023-03-15T22:36:08.954Z,3.50
2023-03-15T22:37:08.919Z,3.40
2023-03-15T22:38:08.952Z,3.50
2023-03-15T22:39:08.898Z,3.70
2023-03-15T22:40:08.873Z,3.80
2023-03-15T22:41:08.877Z,3.90
2023-03-15T22:42:08.848Z,4.00
2023-03-15T22:43:08.832Z,3.60
2023-03-15T22:44:08.849Z,3.60
2023-03-15T22:45:08.802Z,3.50
2023-03-15T22:46:08.843Z,3.50
2023-03-15T22:47:08.778Z,3.80
2023-03-15T22:48:08.780Z,3.60
2023-03-15T22:49:08.753Z,3.70
2023-03-15T22:50:08.750Z,4.00
2023-03-15T22:51:08.805Z,4.40
2023-03-15T22:52:08.722Z,3.80
2023-03-15T22:53:08.761Z,4.50
2023-03-15T22:54:08.773Z,4.20
2023-03-15T22:55:08.699Z,4.50
2023-03-15T22:56:08.696Z,4.40
2023-03-15T22:57:08.652Z,4.10
2023-03-15T22:58:08.640Z,4.10
2023-03-15T22:59:08.700Z,4.10
2023-03-15T23:00:08.611Z,4.60
2023-03-15T23:01:08.646Z,4.20
2023-03-15T23:02:08.602Z,4.00
2023-03-15T23:03:08.580Z,4.60
2023-03-15T23:04:08.643Z,4.40
2023-03-15T23:05:08.567Z,4.40
2023-03-15T23:06:08.542Z,4.80
2023-03-15T23:07:08.536Z,6.20
2023-03-15T23:08:08.512Z,6.40
2023-03-15T23:10:19.201Z,5.80
2023-03-15T23:11:20.310Z,5.70
2023-03-15T23:12:27.179Z,6.10
2023-03-15T23:13:20.187Z,6.30
2023-03-15T23:14:20.175Z,7.30
2023-03-15T23:15:20.147Z,6.50
2023-03-15T23:16:20.204Z,6.90
2023-03-15T23:17:20.112Z,7.30
2023-03-15T23:18:20.116Z,7.00
2023-03-15T23:19:20.082Z,7.40
2023-03-15T23:20:20.088Z,7.80
2023-03-15T23:21:20.093Z,7.20
2023-03-15T23:22:20.047Z,7.30
2023-03-15T23:23:20.033Z,7.50
2023-03-15T23:24:20.025Z,7.20
2023-03-15T23:25:20.002Z,6.20
2023-03-15T23:26:20.020Z,6.70
2023-03-15T23:27:19.983Z,6.70
2023-03-15T23:28:19.970Z,7.30
2023-03-15T23:29:20.041Z,7.00
2023-03-15T23:30:20.016Z,6.50
2023-03-15T23:31:19.959Z,6.50
2023-03-15T23:32:19.937Z,6.60
2023-03-15T23:33:19.904Z,6.80
2023-03-15T23:34:19.950Z,6.80
2023-03-15T23:35:19.922Z,6.60
2023-03-15T23:36:19.882Z,6.20
2023-03-15T23:37:19.858Z,5.70
2023-03-15T23:38:19.856Z,5.80
2023-03-15T23:39:19.843Z,5.50
2023-03-15T23:40:20.419Z,5.90
2023-03-15T23:41:19.829Z,5.50
2023-03-15T23:42:19.822Z,5.50
2023-03-15T23:43:19.783Z,5.60
2023-03-15T23:44:19.790Z,5.10
2023-03-15T23:45:19.865Z,4.90
2023-03-15T23:46:19.845Z,5.20
2023-03-15T23:47:19.728Z,5.50
2023-03-15T23:48:19.755Z,5.30
2023-03-15T23:49:19.745Z,4.90
2023-03-15T23:50:19.758Z,5.50
2023-03-15T23:51:19.713Z,5.20
2023-03-15T23:52:19.704Z,5.20
2023-03-15T23:53:19.697Z,5.30
2023-03-15T23:54:19.677Z,5.20
2023-03-15T23:55:19.630Z,5.10
2023-03-15T23:56:19.702Z,5.40
2023-03-15T23:57:19.619Z,5.90
2023-03-15T23:58:19.598Z,5.30
2023-03-15T23:59:19.588Z,5.10
